createdAt,value
2019-01-14T00:02:15.417Z,2.80
2019-01-14T00:04:45.123Z,1.63
2019-01-14T00:07:15.475Z,1.67
2019-01-14T00:09:45.285Z,1.93
2019-01-14T00:12:15.525Z,1.57
2019-01-14T00:14:45.230Z,2.37
2019-01-14T00:17:14.808Z,2.00
2019-01-14T00:19:45.183Z,2.77
2019-01-14T00:22:15.513Z,2.90
2019-01-14T00:24:45.883Z,2.20
2019-01-14T00:27:15.559Z,1.70
2019-01-14T00:29:45.801Z,3.20
2019-01-14T00:32:15.481Z,1.77
2019-01-14T00:34:45.064Z,2.30
2019-01-14T00:37:15.307Z,2.20
2019-01-14T00:39:46.110Z,2.00
2019-01-14T00:42:16.936Z,2.20
2019-01-14T00:44:47.276Z,1.60
2019-01-14T00:47:17.629Z,3.23
2019-01-14T00:49:47.283Z,1.40
2019-01-14T00:52:17.516Z,1.63
2019-01-14T00:54:47.207Z,1.90
2019-01-14T00:57:17.452Z,1.57
2019-01-14T00:59:47.156Z,2.27
2019-01-14T01:02:17.391Z,2.43
2019-01-14T01:04:47.759Z,1.67
2019-01-14T01:07:18.131Z,1.70
2019-01-14T01:09:48.484Z,1.40
2019-01-14T01:12:19.736Z,1.73
2019-01-14T01:14:50.101Z,2.27
2019-01-14T01:17:20.524Z,1.90
2019-01-14T01:19:50.880Z,1.97
2019-01-14T01:22:21.211Z,1.60
2019-01-14T01:24:51.577Z,1.83
2019-01-14T01:27:21.914Z,1.73
2019-01-14T01:29:52.244Z,1.60
2019-01-14T01:32:22.928Z,1.90
2019-01-14T01:34:53.236Z,1.80
2019-01-14T01:37:23.563Z,2.23
2019-01-14T01:39:53.896Z,2.00
2019-01-14T01:42:24.227Z,1.62
2019-01-14T01:44:54.587Z,1.67
2019-01-14T01:47:24.259Z,1.63
2019-01-14T01:49:54.498Z,1.47
2019-01-14T01:52:24.847Z,2.03
2019-01-14T01:54:55.179Z,1.90
2019-01-14T01:57:25.527Z,1.80
2019-01-14T01:59:55.840Z,2.17
2019-01-14T02:02:26.213Z,2.87
2019-01-14T02:04:56.552Z,2.00
2019-01-14T02:07:26.239Z,2.10
2019-01-14T02:09:56.480Z,3.10
2019-01-14T02:12:26.180Z,2.40
2019-01-14T02:14:56.444Z,1.97
2019-01-14T02:17:26.135Z,1.42
2019-01-14T02:19:56.988Z,1.70
2019-01-14T02:22:26.654Z,2.00
2019-01-14T02:24:59.657Z,1.93
2019-01-14T02:27:29.337Z,1.80
2019-01-14T02:29:59.780Z,2.03
2019-01-14T02:32:30.143Z,1.62
2019-01-14T02:35:00.474Z,3.03
2019-01-14T02:37:30.828Z,1.80
2019-01-14T02:40:01.362Z,1.50
2019-01-14T02:42:31.732Z,1.50
2019-01-14T02:45:02.172Z,1.90
2019-01-14T02:47:32.493Z,1.43
2019-01-14T02:50:02.850Z,2.20
2019-01-14T02:52:39.577Z,1.90
2019-01-14T02:55:05.973Z,1.93
2019-01-14T02:57:36.372Z,1.80
2019-01-14T03:00:09.853Z,1.80
2019-01-14T03:02:39.556Z,1.83
2019-01-14T03:05:09.145Z,1.87
2019-01-14T03:07:38.724Z,1.57
2019-01-14T03:10:09.849Z,2.40
2019-01-14T03:12:40.228Z,2.27
2019-01-14T03:15:10.979Z,2.10
2019-01-14T03:17:41.341Z,1.43
2019-01-14T03:20:11.729Z,1.40
2019-01-14T03:22:42.094Z,2.20
2019-01-14T03:25:13.410Z,2.07
2019-01-14T03:27:43.870Z,2.30
2019-01-14T03:30:16.623Z,2.63
2019-01-14T03:32:47.101Z,1.80
2019-01-14T03:35:16.736Z,2.27
2019-01-14T03:37:46.968Z,1.70
2019-01-14T03:40:17.490Z,1.37
2019-01-14T03:42:47.735Z,2.13
2019-01-14T03:45:18.972Z,1.87
2019-01-14T03:47:48.664Z,1.53
2019-01-14T03:50:22.467Z,2.30
2019-01-14T03:52:53.027Z,2.33
2019-01-14T03:55:23.568Z,2.57
2019-01-14T03:57:54.649Z,2.10
2019-01-14T04:00:24.997Z,2.00
2019-01-14T04:02:55.337Z,1.93
2019-01-14T04:05:25.700Z,1.97
2019-01-14T04:07:56.019Z,2.00
2019-01-14T04:10:26.368Z,2.10
2019-01-14T04:12:56.704Z,2.00
2019-01-14T04:15:27.067Z,2.33
2019-01-14T04:17:56.740Z,1.77
2019-01-14T04:20:27.003Z,2.62
2019-01-14T04:22:56.725Z,2.00
2019-01-14T04:25:26.956Z,2.10
2019-01-14T04:27:57.773Z,1.63
2019-01-14T04:30:28.107Z,2.33
2019-01-14T04:32:58.519Z,1.90
2019-01-14T04:35:28.852Z,1.97
2019-01-14T04:37:59.372Z,2.13
2019-01-14T04:40:29.709Z,2.80
2019-01-14T04:42:59.821Z,2.23
2019-01-14T04:45:30.052Z,2.20
2019-01-14T04:48:00.499Z,1.87
2019-01-14T04:50:30.749Z,1.97
2019-01-14T04:53:00.445Z,1.40
2019-01-14T04:55:30.688Z,2.20
2019-01-14T04:58:01.065Z,2.83
2019-01-14T05:00:31.403Z,2.03
2019-01-14T05:03:01.088Z,3.10
2019-01-14T05:05:31.335Z,2.80
2019-01-14T05:08:01.060Z,2.33
2019-01-14T05:10:31.311Z,2.40
2019-01-14T05:13:01.004Z,2.50
2019-01-14T05:15:31.239Z,1.87
2019-01-14T05:18:00.958Z,2.27
2019-01-14T05:20:31.195Z,1.67
2019-01-14T05:23:00.888Z,2.60
2019-01-14T05:25:31.120Z,2.10
2019-01-14T05:28:01.494Z,2.20
2019-01-14T05:30:31.174Z,2.40
2019-01-14T05:33:00.759Z,1.83
2019-01-14T05:35:30.988Z,1.83
2019-01-14T05:38:01.349Z,2.40
2019-01-14T05:40:31.696Z,2.40
2019-01-14T05:43:01.435Z,2.83
2019-01-14T05:45:31.670Z,1.60
2019-01-14T05:48:02.074Z,1.70
2019-01-14T05:50:32.415Z,2.77
2019-01-14T05:53:02.748Z,1.67
2019-01-14T05:55:33.078Z,1.93
2019-01-14T05:58:02.780Z,2.27
2019-01-14T06:00:38.673Z,2.40
2019-01-14T06:03:08.918Z,2.10
2019-01-14T06:05:39.251Z,2.02
2019-01-14T06:08:09.589Z,1.97
2019-01-14T06:10:39.932Z,2.22
2019-01-14T06:13:10.269Z,2.17
2019-01-14T06:15:40.619Z,2.10
2019-01-14T06:18:10.959Z,1.63
2019-01-14T06:20:41.308Z,2.77
2019-01-14T06:23:10.996Z,2.60
2019-01-14T06:25:41.265Z,2.13
2019-01-14T06:28:11.608Z,2.27
2019-01-14T06:30:42.114Z,1.90
2019-01-14T06:33:12.488Z,2.10
2019-01-14T06:35:42.883Z,2.30
2019-01-14T06:38:12.652Z,1.77
2019-01-14T06:40:42.888Z,2.43
2019-01-14T06:43:12.584Z,1.90
2019-01-14T06:45:43.062Z,1.70
2019-01-14T06:48:12.759Z,2.80
2019-01-14T06:50:43.316Z,2.30
2019-01-14T06:53:13.004Z,2.40
2019-01-14T06:55:46.414Z,2.43
2019-01-14T06:58:16.775Z,2.33
2019-01-14T07:00:46.439Z,2.50
2019-01-14T07:03:16.695Z,1.50
2019-01-14T07:05:47.269Z,2.10
2019-01-14T07:08:17.606Z,1.97
2019-01-14T07:10:47.924Z,2.03
2019-01-14T07:13:18.277Z,1.87
2019-01-14T07:15:48.610Z,2.03
2019-01-14T07:18:18.960Z,2.20
2019-01-14T07:20:49.291Z,1.80
2019-01-14T07:23:19.624Z,1.80
2019-01-14T07:25:50.017Z,2.03
2019-01-14T07:28:21.049Z,2.50
2019-01-14T07:30:50.713Z,2.10
2019-01-14T07:33:20.842Z,2.33
2019-01-14T07:35:50.403Z,2.43
2019-01-14T07:38:20.994Z,2.22
2019-01-14T07:40:50.642Z,1.57
2019-01-14T07:43:20.232Z,2.17
2019-01-14T07:45:51.911Z,1.87
2019-01-14T07:48:22.450Z,1.63
2019-01-14T07:50:52.787Z,1.90
2019-01-14T07:53:22.460Z,2.33
2019-01-14T07:55:52.856Z,2.53
2019-01-14T07:58:22.542Z,2.70
2019-01-14T08:00:52.784Z,1.80
2019-01-14T08:03:22.462Z,2.23
2019-01-14T08:05:52.736Z,1.80
2019-01-14T08:08:22.417Z,2.83
2019-01-14T08:10:52.667Z,2.10
2019-01-14T08:13:22.404Z,2.03
2019-01-14T08:15:52.658Z,1.97
2019-01-14T08:18:22.347Z,2.40
2019-01-14T08:20:52.679Z,2.17
2019-01-14T08:23:22.391Z,1.80
2019-01-14T08:25:51.975Z,2.30
2019-01-14T08:28:22.275Z,1.87
2019-01-14T08:30:52.638Z,2.27
2019-01-14T08:33:22.359Z,2.47
2019-01-14T08:35:52.646Z,1.97
2019-01-14T08:38:22.332Z,1.73
2019-01-14T08:40:52.592Z,1.77
2019-01-14T08:43:23.351Z,2.87
2019-01-14T08:45:54.000Z,1.97
2019-01-14T08:48:24.009Z,2.07
2019-01-14T08:50:54.256Z,2.47
2019-01-14T08:53:24.052Z,2.03
2019-01-14T08:55:54.467Z,3.43
2019-01-14T08:58:24.154Z,2.23
2019-01-14T09:00:54.420Z,2.57
2019-01-14T09:03:24.160Z,2.33
2019-01-14T09:05:54.392Z,1.97
2019-01-14T09:08:28.682Z,2.83
2019-01-14T09:10:55.363Z,5.73
2019-01-14T09:13:26.951Z,2.93
2019-01-14T09:15:57.291Z,2.47
2019-01-14T09:18:27.632Z,2.10
2019-01-14T09:20:58.995Z,1.93
2019-01-14T09:23:29.376Z,2.50
2019-01-14T09:25:59.719Z,2.40
2019-01-14T09:28:29.412Z,2.62
2019-01-14T09:30:59.019Z,2.53
2019-01-14T09:33:28.624Z,2.40
2019-01-14T09:35:58.880Z,2.03
2019-01-14T09:38:35.610Z,2.50
2019-01-14T09:41:00.631Z,3.00
2019-01-14T09:43:30.260Z,2.00
2019-01-14T09:46:00.552Z,2.27
2019-01-14T09:48:30.939Z,2.23
2019-01-14T09:51:00.623Z,2.17
2019-01-14T09:53:30.255Z,2.27
2019-01-14T09:56:00.512Z,2.60
2019-01-14T09:58:30.865Z,2.00
2019-01-14T10:01:00.600Z,2.40
2019-01-14T10:03:30.236Z,2.50
2019-01-14T10:06:00.499Z,2.33
2019-01-14T10:08:30.836Z,2.08
2019-01-14T10:11:00.564Z,2.70
2019-01-14T10:13:30.200Z,2.27
2019-01-14T10:16:00.466Z,2.70
2019-01-14T10:18:30.800Z,2.27
2019-01-14T10:21:00.543Z,2.53
2019-01-14T10:23:30.183Z,2.57
2019-01-14T10:26:00.684Z,1.93
2019-01-14T10:28:31.044Z,2.03
2019-01-14T10:31:00.692Z,2.43
2019-01-14T10:33:30.323Z,2.10
2019-01-14T10:36:00.997Z,2.33
2019-01-14T10:38:31.407Z,1.80
2019-01-14T10:41:01.369Z,2.20
2019-01-14T10:43:31.761Z,2.47
2019-01-14T10:46:02.136Z,1.87
2019-01-14T10:48:32.466Z,1.90
2019-01-14T10:51:02.146Z,2.33
2019-01-14T10:53:31.771Z,2.50
2019-01-14T10:56:03.524Z,2.27
2019-01-14T10:58:33.864Z,2.63
2019-01-14T11:01:03.559Z,2.60
2019-01-14T11:03:33.227Z,2.45
2019-01-14T11:06:02.918Z,2.40
2019-01-14T11:08:33.203Z,2.73
2019-01-14T11:11:03.604Z,2.30
2019-01-14T11:13:33.988Z,2.30
2019-01-14T11:16:03.708Z,2.80
2019-01-14T11:18:33.499Z,2.47
2019-01-14T11:21:03.769Z,2.20
2019-01-14T11:23:33.494Z,2.30
2019-01-14T11:26:05.271Z,2.63
2019-01-14T11:28:35.616Z,2.67
2019-01-14T11:31:07.496Z,2.83
2019-01-14T11:33:39.236Z,2.23
2019-01-14T11:36:08.916Z,2.13
2019-01-14T11:38:47.989Z,2.70
2019-01-14T11:41:18.962Z,2.50
2019-01-14T11:43:49.269Z,3.00
2019-01-14T11:46:19.290Z,2.40
2019-01-14T11:48:49.594Z,3.07
2019-01-14T11:51:19.231Z,3.00
2019-01-14T11:53:48.857Z,2.70
2019-01-14T11:56:19.782Z,3.20
2019-01-14T11:58:50.208Z,2.23
2019-01-14T12:01:19.903Z,2.37
2019-01-14T12:03:49.519Z,2.67
2019-01-14T12:06:19.789Z,2.93
2019-01-14T12:08:49.525Z,2.47
2019-01-14T12:11:19.115Z,2.43
2019-01-14T12:13:48.688Z,2.17
2019-01-14T12:16:18.950Z,2.97
2019-01-14T12:18:48.659Z,2.60
2019-01-14T12:21:19.000Z,2.80
2019-01-14T12:23:48.683Z,2.30
2019-01-14T12:26:18.993Z,2.43
2019-01-14T12:28:48.695Z,2.30
2019-01-14T12:31:18.295Z,2.53
2019-01-14T12:33:48.556Z,2.47
2019-01-14T12:36:18.237Z,2.33
2019-01-14T12:38:48.487Z,2.00
2019-01-14T12:41:18.172Z,2.23
2019-01-14T12:43:48.500Z,2.60
2019-01-14T12:46:19.088Z,3.10
2019-01-14T12:48:48.782Z,2.07
2019-01-14T12:51:19.083Z,2.67
2019-01-14T12:53:48.767Z,3.07
2019-01-14T12:56:19.222Z,2.40
2019-01-14T12:58:48.903Z,2.80
2019-01-14T13:01:18.493Z,2.93
2019-01-14T13:03:48.329Z,2.20
2019-01-14T13:06:18.595Z,2.37
2019-01-14T13:08:48.936Z,2.03
2019-01-14T13:11:23.190Z,2.60
2019-01-14T13:13:50.552Z,2.33
2019-01-14T13:16:21.224Z,2.37
2019-01-14T13:18:51.616Z,2.70
2019-01-14T13:21:21.947Z,2.43
2019-01-14T13:23:51.723Z,1.97
2019-01-14T13:26:21.968Z,2.47
2019-01-14T13:28:52.328Z,2.17
2019-01-14T13:31:22.670Z,2.53
2019-01-14T13:33:52.404Z,2.87
2019-01-14T13:36:22.644Z,2.40
2019-01-14T13:38:53.048Z,2.40
2019-01-14T13:41:22.826Z,3.67
2019-01-14T13:43:53.176Z,2.10
2019-01-14T13:46:26.351Z,2.23
2019-01-14T13:48:54.812Z,2.50
2019-01-14T13:51:24.485Z,2.17
2019-01-14T13:53:54.107Z,2.93
2019-01-14T13:56:24.364Z,2.90
2019-01-14T13:58:54.752Z,2.43
2019-01-14T14:01:24.450Z,2.90
2019-01-14T14:03:54.760Z,2.37
2019-01-14T14:06:26.176Z,3.00
2019-01-14T14:08:56.465Z,2.30
2019-01-14T14:11:26.143Z,2.45
2019-01-14T14:13:55.728Z,2.47
2019-01-14T14:16:25.983Z,2.60
2019-01-14T14:18:56.360Z,2.43
2019-01-14T14:21:26.061Z,2.30
2019-01-14T14:23:56.412Z,2.63
2019-01-14T14:26:26.116Z,2.73
2019-01-14T14:28:56.364Z,2.93
2019-01-14T14:31:26.049Z,3.00
2019-01-14T14:33:56.329Z,2.40
2019-01-14T14:36:26.023Z,2.43
2019-01-14T14:38:56.356Z,2.67
2019-01-14T14:41:27.163Z,2.53
2019-01-14T14:43:56.928Z,3.07
2019-01-14T14:46:26.524Z,3.10
2019-01-14T14:48:56.904Z,2.73
2019-01-14T14:51:26.612Z,3.33
2019-01-14T14:53:56.228Z,2.70
2019-01-14T14:56:26.708Z,2.90
2019-01-14T14:58:57.042Z,2.63
2019-01-14T15:01:26.715Z,3.10
2019-01-14T15:03:56.315Z,2.67
2019-01-14T15:06:26.586Z,3.22
2019-01-14T15:08:56.323Z,2.10
2019-01-14T15:11:25.925Z,2.60
2019-01-14T15:13:55.535Z,3.03
2019-01-14T15:16:25.135Z,3.27
2019-01-14T15:18:55.390Z,2.73
2019-01-14T15:21:25.054Z,2.70
2019-01-14T15:23:55.298Z,2.97
2019-01-14T15:26:24.991Z,2.20
2019-01-14T15:28:55.241Z,2.57
2019-01-14T15:31:24.916Z,2.60
2019-01-14T15:33:55.178Z,2.40
2019-01-14T15:36:25.548Z,2.30
2019-01-14T15:38:55.246Z,2.60
2019-01-14T15:41:25.529Z,2.33
2019-01-14T15:43:55.216Z,2.50
2019-01-14T15:46:25.528Z,2.87
2019-01-14T15:48:55.872Z,2.50
2019-01-14T15:51:26.223Z,2.13
2019-01-14T15:53:55.920Z,3.10
2019-01-14T15:56:25.548Z,2.10
2019-01-14T15:58:55.784Z,3.23
2019-01-14T16:01:25.523Z,3.40
2019-01-14T16:03:55.808Z,3.23
2019-01-14T16:06:26.176Z,4.47
2019-01-14T16:08:56.805Z,4.90
2019-01-14T16:11:26.512Z,6.60
2019-01-14T16:13:56.282Z,6.40
2019-01-14T16:16:25.829Z,4.70
2019-01-14T16:18:56.157Z,5.13
2019-01-14T16:21:25.864Z,4.25
2019-01-14T16:23:56.132Z,7.27
2019-01-14T16:26:26.501Z,5.60
2019-01-14T16:28:56.839Z,4.00
2019-01-14T16:31:26.558Z,3.70
2019-01-14T16:33:56.204Z,3.40
2019-01-14T16:36:25.788Z,3.40
2019-01-14T16:38:56.056Z,2.70
2019-01-14T16:41:25.728Z,2.60
2019-01-14T16:43:55.962Z,2.80
2019-01-14T16:46:26.394Z,2.73
2019-01-14T16:48:57.268Z,2.17
2019-01-14T16:51:26.971Z,2.10
2019-01-14T16:53:56.663Z,2.73
2019-01-14T16:56:26.264Z,2.90
2019-01-14T16:58:56.528Z,2.47
2019-01-14T17:01:26.207Z,2.52
2019-01-14T17:03:55.848Z,2.40
2019-01-14T17:06:26.080Z,3.13
2019-01-14T17:08:55.782Z,2.27
2019-01-14T17:11:26.016Z,2.65
2019-01-14T17:13:56.508Z,3.30
2019-01-14T17:16:26.193Z,2.17
2019-01-14T17:18:56.523Z,2.90
2019-01-14T17:21:26.852Z,2.83
2019-01-14T17:23:56.612Z,3.10
2019-01-14T17:26:26.183Z,2.33
2019-01-14T17:28:56.464Z,2.50
2019-01-14T17:31:26.174Z,2.47
2019-01-14T17:33:56.459Z,3.63
2019-01-14T17:36:26.140Z,3.83
2019-01-14T17:38:56.462Z,2.90
2019-01-14T17:41:27.808Z,3.20
2019-01-14T17:43:58.884Z,3.80
2019-01-14T17:46:29.223Z,3.43
2019-01-14T17:48:59.654Z,3.30
2019-01-14T17:51:30.312Z,3.10
2019-01-14T17:54:00.112Z,2.77
2019-01-14T17:56:29.720Z,2.80
2019-01-14T17:58:59.991Z,3.27
2019-01-14T18:01:30.478Z,2.77
2019-01-14T18:04:00.212Z,2.73
2019-01-14T18:06:29.859Z,2.97
2019-01-14T18:08:59.530Z,2.40
2019-01-14T18:11:29.925Z,2.67
2019-01-14T18:13:59.612Z,3.30
2019-01-14T18:16:29.215Z,2.57
2019-01-14T18:18:58.857Z,2.77
2019-01-14T18:21:28.523Z,2.50
2019-01-14T18:23:58.127Z,2.53
2019-01-14T18:26:27.807Z,2.53
2019-01-14T18:28:57.564Z,2.83
2019-01-14T18:31:27.164Z,2.73
2019-01-14T18:33:56.880Z,2.43
2019-01-14T18:36:26.452Z,3.23
2019-01-14T18:38:56.115Z,2.87
2019-01-14T18:41:25.747Z,3.77
2019-01-14T18:43:55.995Z,3.50
2019-01-14T18:46:25.696Z,3.23
2019-01-14T18:48:55.359Z,3.30
2019-01-14T18:51:25.548Z,3.60
2019-01-14T18:53:55.308Z,3.20
2019-01-14T18:56:25.337Z,2.90
2019-01-14T18:58:54.948Z,2.80
2019-01-14T19:01:25.753Z,4.35
2019-01-14T19:03:55.460Z,4.97
2019-01-14T19:06:26.814Z,3.20
2019-01-14T19:08:57.060Z,3.07
2019-01-14T19:11:26.819Z,3.17
2019-01-14T19:13:56.511Z,4.00
2019-01-14T19:16:26.107Z,3.63
2019-01-14T19:18:56.646Z,3.57
2019-01-14T19:21:26.328Z,3.00
2019-01-14T19:23:55.959Z,3.90
2019-01-14T19:26:25.548Z,2.92
2019-01-14T19:28:55.851Z,3.17
2019-01-14T19:31:26.203Z,3.05
2019-01-14T19:33:56.644Z,3.60
2019-01-14T19:36:26.323Z,3.23
2019-01-14T19:38:55.936Z,3.97
2019-01-14T19:41:26.302Z,4.00
2019-01-14T19:43:56.959Z,3.57
2019-01-14T19:46:26.718Z,4.50
2019-01-14T19:48:56.970Z,3.40
2019-01-14T19:51:26.750Z,5.00
2019-01-14T19:53:56.376Z,4.10
2019-01-14T19:56:25.989Z,3.70
2019-01-14T19:58:56.258Z,3.73
2019-01-14T20:01:26.864Z,3.77
2019-01-14T20:03:56.535Z,4.00
2019-01-14T20:06:26.142Z,4.13
2019-01-14T20:08:55.761Z,3.83
2019-01-14T20:11:25.408Z,4.03
2019-01-14T20:13:55.679Z,4.20
2019-01-14T20:16:26.046Z,5.70
2019-01-14T20:18:56.433Z,4.90
2019-01-14T20:21:26.790Z,3.70
2019-01-14T20:23:56.490Z,3.87
2019-01-14T20:26:26.102Z,3.80
2019-01-14T20:28:55.780Z,4.47
2019-01-14T20:31:26.027Z,3.87
2019-01-14T20:33:56.398Z,3.93
2019-01-14T20:36:26.084Z,3.07
2019-01-14T20:38:56.348Z,3.10
2019-01-14T20:41:26.704Z,3.27
2019-01-14T20:43:56.406Z,3.20
2019-01-14T20:46:26.648Z,3.00
2019-01-14T20:48:57.384Z,3.00
2019-01-14T20:51:27.068Z,2.83
2019-01-14T20:53:56.675Z,3.20
2019-01-14T20:56:26.927Z,3.67
2019-01-14T20:58:56.679Z,3.23
2019-01-14T21:01:26.266Z,3.77
2019-01-14T21:03:56.549Z,3.10
2019-01-14T21:06:26.938Z,3.12
2019-01-14T21:08:56.642Z,2.63
2019-01-14T21:11:27.016Z,3.13
2019-01-14T21:13:56.776Z,2.53
2019-01-14T21:16:27.043Z,2.83
2019-01-14T21:18:56.744Z,2.60
2019-01-14T21:21:27.016Z,2.40
2019-01-14T21:23:56.745Z,2.30
2019-01-14T21:26:27.149Z,2.20
2019-01-14T21:28:56.838Z,2.70
2019-01-14T21:31:27.115Z,2.53
2019-01-14T21:33:56.804Z,2.60
2019-01-14T21:36:27.079Z,3.00
2019-01-14T21:38:56.848Z,2.20
2019-01-14T21:41:31.122Z,2.27
2019-01-14T21:43:58.431Z,2.43
2019-01-14T21:46:28.755Z,2.40
2019-01-14T21:48:58.460Z,2.60
2019-01-14T21:51:28.741Z,2.77
2019-01-14T21:53:59.142Z,2.37
2019-01-14T21:56:29.488Z,2.55
2019-01-14T21:58:59.168Z,3.10
2019-01-14T22:01:29.477Z,2.80
2019-01-14T22:03:59.844Z,2.27
2019-01-14T22:06:30.237Z,2.50
2019-01-14T22:09:00.604Z,3.37
2019-01-14T22:11:38.227Z,2.10
2019-01-14T22:14:03.198Z,2.23
2019-01-14T22:16:33.584Z,2.83
2019-01-14T22:19:03.940Z,2.53
2019-01-14T22:21:34.318Z,1.97
2019-01-14T22:24:04.012Z,2.90
2019-01-14T22:26:33.651Z,2.60
2019-01-14T22:29:03.912Z,1.97
2019-01-14T22:31:37.227Z,2.40
2019-01-14T22:34:07.821Z,2.40
2019-01-14T22:36:38.382Z,1.97
2019-01-14T22:39:09.252Z,2.03
2019-01-14T22:41:45.645Z,2.33
2019-01-14T22:44:11.615Z,1.90
2019-01-14T22:46:42.016Z,1.93
2019-01-14T22:49:12.340Z,2.40
2019-01-14T22:51:42.048Z,1.90
2019-01-14T22:54:11.731Z,2.13
2019-01-14T22:56:41.311Z,1.70
2019-01-14T22:59:11.592Z,2.20
2019-01-14T23:01:44.809Z,2.20
2019-01-14T23:04:15.091Z,1.90
2019-01-14T23:06:45.640Z,1.93
2019-01-14T23:09:15.995Z,1.93
2019-01-14T23:11:52.856Z,2.37
2019-01-14T23:14:17.980Z,1.90
2019-01-14T23:16:48.318Z,1.80
2019-01-14T23:19:17.990Z,1.97
2019-01-14T23:21:48.244Z,1.73
2019-01-14T23:24:18.576Z,2.17
2019-01-14T23:26:51.297Z,1.90
2019-01-14T23:29:21.985Z,2.80
2019-01-14T23:31:51.667Z,2.40
2019-01-14T23:34:21.979Z,1.90
2019-01-14T23:36:52.959Z,2.80
2019-01-14T23:39:23.233Z,2.02
2019-01-14T23:42:00.153Z,2.83
2019-01-14T23:44:25.503Z,1.90
2019-01-14T23:46:59.083Z,1.87
2019-01-14T23:49:28.751Z,1.90
2019-01-14T23:51:58.997Z,2.10
2019-01-14T23:54:28.687Z,2.20
2019-01-14T23:56:58.948Z,2.10
2019-01-14T23:59:29.298Z,2.23
